Tequesta, FL (33469)

8:08 PM EDT on August 25, 2016 (GMT -0400)
Rolling Hills | | Change Station

Elev 23 ft 26.99 °N, 80.09 °W | Updated 10 seconds ago

Light Thunderstorms and Rain
Light Thunderstorm Rain
84.9 °F
Feels Like 102 °F
N
3.6
Wind Variable Wind from NE
Gusts 4.9 mph

Today
High -- | Low -- °F
--% Chance of Precip.
Yesterday
High -- | Low -- °F
Precip. -- in
Pressure 29.97 in
Visibility 5.0 miles
Clouds Scattered Clouds 1500 ft
Mostly Cloudy 3000 ft
Heat Index 102 °F
Dew Point 82 °F
Humidity 92%
Rainfall 0.09 in
Snow Depth Not available.
6:56 AM 7:47 PM
Last Quarter, 40% visible
METAR KSUA 252347Z 04008G18KT 5SM -TSRA SCT015 BKN030 28/26 A2997
Pressure 29.97 in
Visibility 5.0 miles
Clouds Scattered Clouds 1500 ft
Mostly Cloudy 3000 ft
Heat Index 102 °F
Dew Point 82 °F
Humidity 92%
Rainfall 0.09 in
Snow Depth Not available.
6:56 AM 7:47 PM
Last Quarter, 40% visible
METAR KSUA 252347Z 04008G18KT 5SM -TSRA SCT015 BKN030 28/26 A2997
A tropical disturbance pushing toward the Bahamas, is expected to develop into a tropical depression or storm, and will likely target Florida and the Gulf Coast this weekend into next week.

Right now, the disturbance remains a broad area of low pressure pushing through the Dominican Republic and Haiti, headed toward the southeast Bahamas. Rainfall totals over 3 inches (with locally higher amounts) are expected in HispaƱiola, particularly over elevated terrain.

10-Day Weather Forecast

Almanac

Astronomy

Aug. 25, 2016 Rise Set
Actual Time
Civil Twilight
Nautical Twilight
Astronomical Twilight
Moon
Length of Visible Light
Length of Day
Tomorrow will be .
, % of the Moon is Illuminated

Today's Extremes

State Highs State Lows

Community

WunderPhotos

Upload Photos

1,934,970 photos uploaded!

WunderBlog® & News

Nearby

Air Quality

  Air Quality AQ Index Pollutant
Not available.

Snow Depth

Station Depth Elevation

Earthquake Activity

City Distance Mag. Time & Date
Minimum magnitude displayed is 2.5.

Coastal Water Temperatures

Place Temperature

Stations

Nearby Weather Stations

Station Location Temp. Windchill Dew Point Humidity Wind Precip. Elev Updated Type
                   

Watches & Warnings

There are currently no watches in effect.